sensor_id;sensor_type;location;lat;lon;timestamp;temperature;humidity
46590;DHT22;32313;48.722;9.362;2022-10-16T00:00:43;13.70;99.90
46590;DHT22;32313;48.722;9.362;2022-10-16T00:03:10;13.70;99.90
46590;DHT22;32313;48.722;9.362;2022-10-16T00:05:43;13.70;99.90
46590;DHT22;32313;48.722;9.362;2022-10-16T00:08:12;13.70;99.90
46590;DHT22;32313;48.722;9.362;2022-10-16T00:10:39;13.70;99.90
46590;DHT22;32313;48.722;9.362;2022-10-16T00:13:05;13.60;99.90
46590;DHT22;32313;48.722;9.362;2022-10-16T00:15:34;13.60;99.90
46590;DHT22;32313;48.722;9.362;2022-10-16T00:18:02;13.60;99.90
46590;DHT22;32313;48.722;9.362;2022-10-16T00:20:28;13.50;99.90
46590;DHT22;32313;48.722;9.362;2022-10-16T00:22:54;13.50;99.90
46590;DHT22;32313;48.722;9.362;2022-10-16T00:25:20;13.40;99.90
46590;DHT22;32313;48.722;9.362;2022-10-16T00:27:46;13.40;99.90
46590;DHT22;32313;48.722;9.362;2022-10-16T00:30:12;13.30;99.90
46590;DHT22;32313;48.722;9.362;2022-10-16T00:32:37;13.30;99.90
46590;DHT22;32313;48.722;9.362;2022-10-16T00:35:03;13.20;99.90
46590;DHT22;32313;48.722;9.362;2022-10-16T00:37:29;13.20;99.90
46590;DHT22;32313;48.722;9.362;2022-10-16T00:39:55;13.10;99.90
46590;DHT22;32313;48.722;9.362;2022-10-16T00:42:22;13.10;99.90
46590;DHT22;32313;48.722;9.362;2022-10-16T00:44:56;13.10;99.90
46590;DHT22;32313;48.722;9.362;2022-10-16T00:47:30;13.00;99.90
46590;DHT22;32313;48.722;9.362;2022-10-16T00:50:16;13.00;99.90
46590;DHT22;32313;48.722;9.362;2022-10-16T00:52:46;12.90;99.90
46590;DHT22;32313;48.722;9.362;2022-10-16T00:55:12;12.80;99.90
46590;DHT22;32313;48.722;9.362;2022-10-16T00:57:39;12.80;99.90
46590;DHT22;32313;48.722;9.362;2022-10-16T01:00:07;12.70;99.90
46590;DHT22;32313;48.722;9.362;2022-10-16T01:02:33;12.70;99.90
46590;DHT22;32313;48.722;9.362;2022-10-16T01:04:59;12.60;99.90
46590;DHT22;32313;48.722;9.362;2022-10-16T01:13:05;12.50;99.90
46590;DHT22;32313;48.722;9.362;2022-10-16T01:15:48;12.50;99.90
46590;DHT22;32313;48.722;9.362;2022-10-16T01:18:35;12.60;99.90
46590;DHT22;32313;48.722;9.362;2022-10-16T01:21:06;12.60;99.90
46590;DHT22;32313;48.722;9.362;2022-10-16T01:29:06;12.50;99.90
46590;DHT22;32313;48.722;9.362;2022-10-16T01:31:36;12.50;99.90
46590;DHT22;32313;48.722;9.362;2022-10-16T01:34:30;12.40;99.90
46590;DHT22;32313;48.722;9.362;2022-10-16T01:37:00;12.50;99.90
46590;DHT22;32313;48.722;9.362;2022-10-16T01:39:31;12.50;99.90
46590;DHT22;32313;48.722;9.362;2022-10-16T01:42:06;12.50;99.90
46590;DHT22;32313;48.722;9.362;2022-10-16T01:44:34;12.50;99.90
46590;DHT22;32313;48.722;9.362;2022-10-16T01:47:02;12.40;99.90
46590;DHT22;32313;48.722;9.362;2022-10-16T01:49:33;12.40;99.90
46590;DHT22;32313;48.722;9.362;2022-10-16T01:52:00;12.40;99.90
46590;DHT22;32313;48.722;9.362;2022-10-16T01:54:30;12.30;99.90
46590;DHT22;32313;48.722;9.362;2022-10-16T01:56:58;12.30;99.90
46590;DHT22;32313;48.722;9.362;2022-10-16T01:59:25;12.40;99.90
46590;DHT22;32313;48.722;9.362;2022-10-16T02:01:58;12.40;99.90
46590;DHT22;32313;48.722;9.362;2022-10-16T02:04:35;12.50;99.90
46590;DHT22;32313;48.722;9.362;2022-10-16T02:07:02;12.50;99.90
46590;DHT22;32313;48.722;9.362;2022-10-16T02:09:28;12.50;99.90
46590;DHT22;32313;48.722;9.362;2022-10-16T02:11:57;12.50;99.90
46590;DHT22;32313;48.722;9.362;2022-10-16T02:14:25;12.50;99.90
46590;DHT22;32313;48.722;9.362;2022-10-16T02:16:51;12.50;99.90
46590;DHT22;32313;48.722;9.362;2022-10-16T02:19:18;12.50;99.90
46590;DHT22;32313;48.722;9.362;2022-10-16T02:21:53;12.50;99.90
46590;DHT22;32313;48.722;9.362;2022-10-16T02:24:37;12.50;99.90
46590;DHT22;32313;48.722;9.362;2022-10-16T02:29:55;12.60;99.90
46590;DHT22;32313;48.722;9.362;2022-10-16T02:32:29;12.60;99.90
46590;DHT22;32313;48.722;9.362;2022-10-16T02:34:56;12.70;99.90
46590;DHT22;32313;48.722;9.362;2022-10-16T02:37:24;12.70;99.90
46590;DHT22;32313;48.722;9.362;2022-10-16T02:39:50;12.70;99.90
46590;DHT22;32313;48.722;9.362;2022-10-16T02:42:18;12.70;99.90
46590;DHT22;32313;48.722;9.362;2022-10-16T02:44:44;12.70;99.90
46590;DHT22;32313;48.722;9.362;2022-10-16T02:47:09;12.80;99.90
46590;DHT22;32313;48.722;9.362;2022-10-16T02:49:35;12.80;99.90
46590;DHT22;32313;48.722;9.362;2022-10-16T02:52:01;12.80;99.90
46590;DHT22;32313;48.722;9.362;2022-10-16T02:54:26;12.80;99.90
46590;DHT22;32313;48.722;9.362;2022-10-16T02:56:52;12.80;99.90
46590;DHT22;32313;48.722;9.362;2022-10-16T02:59:18;12.90;99.90
46590;DHT22;32313;48.722;9.362;2022-10-16T03:01:44;12.90;99.90
46590;DHT22;32313;48.722;9.362;2022-10-16T03:04:10;12.90;99.90
46590;DHT22;32313;48.722;9.362;2022-10-16T03:06:36;12.90;99.90
46590;DHT22;32313;48.722;9.362;2022-10-16T03:09:01;12.90;99.90
46590;DHT22;32313;48.722;9.362;2022-10-16T03:11:27;12.90;99.90
46590;DHT22;32313;48.722;9.362;2022-10-16T03:13:53;12.80;99.90
46590;DHT22;32313;48.722;9.362;2022-10-16T03:16:19;12.80;99.90
46590;DHT22;32313;48.722;9.362;2022-10-16T03:18:48;12.80;99.90
46590;DHT22;32313;48.722;9.362;2022-10-16T03:21:15;12.70;99.90
46590;DHT22;32313;48.722;9.362;2022-10-16T03:23:40;12.70;99.90
46590;DHT22;32313;48.722;9.362;2022-10-16T03:26:06;12.70;99.90
46590;DHT22;32313;48.722;9.362;2022-10-16T03:28:32;12.70;99.90
46590;DHT22;32313;48.722;9.362;2022-10-16T03:30:57;12.60;99.90
46590;DHT22;32313;48.722;9.362;2022-10-16T03:33:23;12.60;99.90
46590;DHT22;32313;48.722;9.362;2022-10-16T03:35:53;12.60;99.90
46590;DHT22;32313;48.722;9.362;2022-10-16T03:38:19;12.50;99.90
46590;DHT22;32313;48.722;9.362;2022-10-16T03:40:45;12.50;99.90
46590;DHT22;32313;48.722;9.362;2022-10-16T03:43:11;12.50;99.90
46590;DHT22;32313;48.722;9.362;2022-10-16T03:45:36;12.50;99.90
46590;DHT22;32313;48.722;9.362;2022-10-16T03:48:03;12.40;99.90
46590;DHT22;32313;48.722;9.362;2022-10-16T03:50:29;12.50;99.90
46590;DHT22;32313;48.722;9.362;2022-10-16T03:52:55;12.50;99.90
46590;DHT22;32313;48.722;9.362;2022-10-16T03:55:20;12.50;99.90
46590;DHT22;32313;48.722;9.362;2022-10-16T03:57:46;12.50;99.90
46590;DHT22;32313;48.722;9.362;2022-10-16T04:00:12;12.50;99.90
46590;DHT22;32313;48.722;9.362;2022-10-16T04:02:38;12.40;99.90
46590;DHT22;32313;48.722;9.362;2022-10-16T04:05:05;12.40;99.90
46590;DHT22;32313;48.722;9.362;2022-10-16T04:07:30;12.30;99.90
46590;DHT22;32313;48.722;9.362;2022-10-16T04:09:56;12.30;99.90
46590;DHT22;32313;48.722;9.362;2022-10-16T04:12:25;12.20;99.90
46590;DHT22;32313;48.722;9.362;2022-10-16T04:14:50;12.30;99.90
46590;DHT22;32313;48.722;9.362;2022-10-16T04:17:16;12.30;99.90
46590;DHT22;32313;48.722;9.362;2022-10-16T04:19:42;12.30;99.90
46590;DHT22;32313;48.722;9.362;2022-10-16T04:22:07;12.30;99.90
46590;DHT22;32313;48.722;9.362;2022-10-16T04:24:33;12.30;99.90
46590;DHT22;32313;48.722;9.362;2022-10-16T04:26:59;12.30;99.90
46590;DHT22;32313;48.722;9.362;2022-10-16T04:29:24;12.30;99.90
46590;DHT22;32313;48.722;9.362;2022-10-16T04:31:50;12.30;99.90
46590;DHT22;32313;48.722;9.362;2022-10-16T04:34:16;12.30;99.90
46590;DHT22;32313;48.722;9.362;2022-10-16T04:36:41;12.20;99.90
46590;DHT22;32313;48.722;9.362;2022-10-16T04:39:07;12.20;99.90
46590;DHT22;32313;48.722;9.362;2022-10-16T04:41:33;12.20;99.90
46590;DHT22;32313;48.722;9.362;2022-10-16T04:43:58;12.20;99.90
46590;DHT22;32313;48.722;9.362;2022-10-16T04:46:24;12.30;99.90
46590;DHT22;32313;48.722;9.362;2022-10-16T04:48:50;12.30;99.90
46590;DHT22;32313;48.722;9.362;2022-10-16T04:51:15;12.30;99.90
46590;DHT22;32313;48.722;9.362;2022-10-16T04:53:41;12.20;99.90
46590;DHT22;32313;48.722;9.362;2022-10-16T04:56:07;12.20;99.90
46590;DHT22;32313;48.722;9.362;2022-10-16T04:58:32;12.20;99.90
46590;DHT22;32313;48.722;9.362;2022-10-16T05:00:58;12.20;99.90
46590;DHT22;32313;48.722;9.362;2022-10-16T05:03:24;12.20;99.90
46590;DHT22;32313;48.722;9.362;2022-10-16T05:05:49;12.20;99.90
46590;DHT22;32313;48.722;9.362;2022-10-16T05:08:16;12.20;99.90
46590;DHT22;32313;48.722;9.362;2022-10-16T05:10:43;12.20;99.90
46590;DHT22;32313;48.722;9.362;2022-10-16T05:13:09;12.20;99.90
46590;DHT22;32313;48.722;9.362;2022-10-16T05:15:35;12.20;99.90
46590;DHT22;32313;48.722;9.362;2022-10-16T05:18:01;12.20;99.90
46590;DHT22;32313;48.722;9.362;2022-10-16T05:20:27;12.10;99.90
46590;DHT22;32313;48.722;9.362;2022-10-16T05:22:53;12.20;99.90
46590;DHT22;32313;48.722;9.362;2022-10-16T05:25:19;12.20;99.90
46590;DHT22;32313;48.722;9.362;2022-10-16T05:27:48;12.20;99.90
46590;DHT22;32313;48.722;9.362;2022-10-16T05:30:14;12.20;99.90
46590;DHT22;32313;48.722;9.362;2022-10-16T05:32:40;12.20;99.90
46590;DHT22;32313;48.722;9.362;2022-10-16T05:35:06;12.20;99.90
46590;DHT22;32313;48.722;9.362;2022-10-16T05:37:32;12.20;99.90
46590;DHT22;32313;48.722;9.362;2022-10-16T05:39:57;12.20;99.90
46590;DHT22;32313;48.722;9.362;2022-10-16T05:42:23;12.10;99.90
46590;DHT22;32313;48.722;9.362;2022-10-16T05:44:49;12.00;99.90
46590;DHT22;32313;48.722;9.362;2022-10-16T05:47:14;12.00;99.90
46590;DHT22;32313;48.722;9.362;2022-10-16T05:49:40;11.90;99.90
46590;DHT22;32313;48.722;9.362;2022-10-16T05:52:06;11.80;99.90
46590;DHT22;32313;48.722;9.362;2022-10-16T05:54:31;11.80;99.90
46590;DHT22;32313;48.722;9.362;2022-10-16T05:56:57;11.80;99.90
46590;DHT22;32313;48.722;9.362;2022-10-16T05:59:23;11.80;99.90
46590;DHT22;32313;48.722;9.362;2022-10-16T06:01:48;11.80;99.90
46590;DHT22;32313;48.722;9.362;2022-10-16T06:04:14;11.80;99.90
46590;DHT22;32313;48.722;9.362;2022-10-16T06:06:40;11.90;99.90
46590;DHT22;32313;48.722;9.362;2022-10-16T06:09:05;11.90;99.90
46590;DHT22;32313;48.722;9.362;2022-10-16T06:11:32;11.90;99.90
46590;DHT22;32313;48.722;9.362;2022-10-16T06:14:00;12.00;99.90
46590;DHT22;32313;48.722;9.362;2022-10-16T06:16:33;12.10;99.90
46590;DHT22;32313;48.722;9.362;2022-10-16T06:18:59;12.20;99.90
46590;DHT22;32313;48.722;9.362;2022-10-16T06:21:27;12.20;99.90
46590;DHT22;32313;48.722;9.362;2022-10-16T06:23:54;12.30;99.90
46590;DHT22;32313;48.722;9.362;2022-10-16T06:26:22;12.40;99.90
46590;DHT22;32313;48.722;9.362;2022-10-16T06:28:48;12.50;99.90
46590;DHT22;32313;48.722;9.362;2022-10-16T06:31:15;12.60;99.90
46590;DHT22;32313;48.722;9.362;2022-10-16T06:33:41;12.60;99.90
46590;DHT22;32313;48.722;9.362;2022-10-16T06:36:09;12.70;99.90
46590;DHT22;32313;48.722;9.362;2022-10-16T06:38:36;12.80;99.90
46590;DHT22;32313;48.722;9.362;2022-10-16T06:41:02;12.80;99.90
46590;DHT22;32313;48.722;9.362;2022-10-16T06:43:31;12.90;99.90
46590;DHT22;32313;48.722;9.362;2022-10-16T06:45:58;13.00;99.90
46590;DHT22;32313;48.722;9.362;2022-10-16T06:48:25;13.20;99.90
46590;DHT22;32313;48.722;9.362;2022-10-16T06:51:11;13.30;99.90
46590;DHT22;32313;48.722;9.362;2022-10-16T06:53:42;13.40;99.90
46590;DHT22;32313;48.722;9.362;2022-10-16T06:58:38;13.70;99.90
46590;DHT22;32313;48.722;9.362;2022-10-16T07:01:04;14.00;99.90
46590;DHT22;32313;48.722;9.362;2022-10-16T07:03:30;14.60;99.90
46590;DHT22;32313;48.722;9.362;2022-10-16T07:05:56;15.10;99.90
46590;DHT22;32313;48.722;9.362;2022-10-16T07:08:22;15.30;99.90
46590;DHT22;32313;48.722;9.362;2022-10-16T07:10:48;15.50;99.90
46590;DHT22;32313;48.722;9.362;2022-10-16T07:13:13;15.40;99.90
46590;DHT22;32313;48.722;9.362;2022-10-16T07:15:40;15.20;99.90
46590;DHT22;32313;48.722;9.362;2022-10-16T07:18:06;14.90;99.90
46590;DHT22;32313;48.722;9.362;2022-10-16T07:20:32;14.80;99.90
46590;DHT22;32313;48.722;9.362;2022-10-16T07:22:58;14.70;99.90
46590;DHT22;32313;48.722;9.362;2022-10-16T07:25:24;14.70;99.90
46590;DHT22;32313;48.722;9.362;2022-10-16T07:27:49;14.70;99.90
46590;DHT22;32313;48.722;9.362;2022-10-16T07:30:15;14.70;99.90
46590;DHT22;32313;48.722;9.362;2022-10-16T07:32:41;14.80;99.90
46590;DHT22;32313;48.722;9.362;2022-10-16T07:35:07;14.80;99.90
46590;DHT22;32313;48.722;9.362;2022-10-16T07:37:33;14.80;99.90
46590;DHT22;32313;48.722;9.362;2022-10-16T07:39:58;14.80;99.90
46590;DHT22;32313;48.722;9.362;2022-10-16T07:42:24;14.80;99.90
46590;DHT22;32313;48.722;9.362;2022-10-16T07:44:49;14.80;99.90
46590;DHT22;32313;48.722;9.362;2022-10-16T07:47:15;14.90;99.90
46590;DHT22;32313;48.722;9.362;2022-10-16T07:49:41;14.90;99.90
46590;DHT22;32313;48.722;9.362;2022-10-16T07:52:07;15.00;99.90
46590;DHT22;32313;48.722;9.362;2022-10-16T07:54:32;15.00;99.90
46590;DHT22;32313;48.722;9.362;2022-10-16T07:56:58;15.00;99.90
46590;DHT22;32313;48.722;9.362;2022-10-16T07:59:23;15.00;99.90
46590;DHT22;32313;48.722;9.362;2022-10-16T08:01:49;15.00;99.90
46590;DHT22;32313;48.722;9.362;2022-10-16T08:04:15;15.10;99.90
46590;DHT22;32313;48.722;9.362;2022-10-16T08:06:41;15.20;99.90
46590;DHT22;32313;48.722;9.362;2022-10-16T08:09:08;15.30;99.90
46590;DHT22;32313;48.722;9.362;2022-10-16T08:11:33;15.40;99.90
46590;DHT22;32313;48.722;9.362;2022-10-16T08:14:00;15.50;99.90
46590;DHT22;32313;48.722;9.362;2022-10-16T08:16:25;15.60;99.90
46590;DHT22;32313;48.722;9.362;2022-10-16T08:18:51;15.60;99.90
46590;DHT22;32313;48.722;9.362;2022-10-16T08:21:19;15.70;99.90
46590;DHT22;32313;48.722;9.362;2022-10-16T08:23:45;15.70;99.90
46590;DHT22;32313;48.722;9.362;2022-10-16T08:26:12;15.80;99.90
46590;DHT22;32313;48.722;9.362;2022-10-16T08:28:37;16.00;99.90
46590;DHT22;32313;48.722;9.362;2022-10-16T08:33:32;16.30;99.90
46590;DHT22;32313;48.722;9.362;2022-10-16T08:36:00;16.40;99.90
46590;DHT22;32313;48.722;9.362;2022-10-16T08:38:26;16.60;99.90
46590;DHT22;32313;48.722;9.362;2022-10-16T08:40:57;17.00;99.90
46590;DHT22;32313;48.722;9.362;2022-10-16T08:46:21;17.60;99.90
46590;DHT22;32313;48.722;9.362;2022-10-16T08:48:49;18.00;99.90
46590;DHT22;32313;48.722;9.362;2022-10-16T08:51:28;18.20;99.90
46590;DHT22;32313;48.722;9.362;2022-10-16T08:54:02;18.40;99.90
46590;DHT22;32313;48.722;9.362;2022-10-16T08:56:28;18.50;99.90
46590;DHT22;32313;48.722;9.362;2022-10-16T08:58:54;18.50;99.90
46590;DHT22;32313;48.722;9.362;2022-10-16T09:01:25;18.40;99.90
46590;DHT22;32313;48.722;9.362;2022-10-16T09:06:46;18.00;99.90
46590;DHT22;32313;48.722;9.362;2022-10-16T09:15:02;17.50;99.90
46590;DHT22;32313;48.722;9.362;2022-10-16T09:17:41;17.80;99.90
46590;DHT22;32313;48.722;9.362;2022-10-16T09:22:44;19.00;99.90
46590;DHT22;32313;48.722;9.362;2022-10-16T09:25:16;19.70;99.90
46590;DHT22;32313;48.722;9.362;2022-10-16T09:27:46;19.90;99.90
46590;DHT22;32313;48.722;9.362;2022-10-16T09:30:15;19.90;99.90
46590;DHT22;32313;48.722;9.362;2022-10-16T09:32:42;19.90;99.90
46590;DHT22;32313;48.722;9.362;2022-10-16T09:35:16;19.90;99.90
46590;DHT22;32313;48.722;9.362;2022-10-16T09:37:44;20.00;99.90
46590;DHT22;32313;48.722;9.362;2022-10-16T09:40:35;20.10;99.90
46590;DHT22;32313;48.722;9.362;2022-10-16T09:45:54;20.50;99.90
46590;DHT22;32313;48.722;9.362;2022-10-16T09:48:21;20.60;99.90
46590;DHT22;32313;48.722;9.362;2022-10-16T09:50:56;20.90;99.90
46590;DHT22;32313;48.722;9.362;2022-10-16T09:53:22;21.30;99.90
46590;DHT22;32313;48.722;9.362;2022-10-16T09:55:49;22.10;99.90
46590;DHT22;32313;48.722;9.362;2022-10-16T09:58:16;23.10;99.90
46590;DHT22;32313;48.722;9.362;2022-10-16T10:00:52;23.70;99.90
46590;DHT22;32313;48.722;9.362;2022-10-16T10:03:33;23.70;99.90
46590;DHT22;32313;48.722;9.362;2022-10-16T10:06:00;23.80;99.90
46590;DHT22;32313;48.722;9.362;2022-10-16T10:08:27;23.20;99.90
46590;DHT22;32313;48.722;9.362;2022-10-16T10:10:52;22.70;99.90
46590;DHT22;32313;48.722;9.362;2022-10-16T10:13:22;22.70;99.90
46590;DHT22;32313;48.722;9.362;2022-10-16T10:15:48;23.90;99.90
46590;DHT22;32313;48.722;9.362;2022-10-16T10:18:18;25.00;99.90
46590;DHT22;32313;48.722;9.362;2022-10-16T10:20:45;25.80;99.90
46590;DHT22;32313;48.722;9.362;2022-10-16T10:23:22;26.70;99.90
46590;DHT22;32313;48.722;9.362;2022-10-16T10:25:53;27.70;99.90
46590;DHT22;32313;48.722;9.362;2022-10-16T10:40:15;27.20;99.90
46590;DHT22;32313;48.722;9.362;2022-10-16T10:42:55;27.90;99.90
46590;DHT22;32313;48.722;9.362;2022-10-16T10:45:27;28.60;99.90
46590;DHT22;32313;48.722;9.362;2022-10-16T10:48:05;28.80;99.90
46590;DHT22;32313;48.722;9.362;2022-10-16T10:50:39;29.60;99.90
46590;DHT22;32313;48.722;9.362;2022-10-16T10:56:39;30.20;99.90
46590;DHT22;32313;48.722;9.362;2022-10-16T11:01:26;29.90;99.90
46590;DHT22;32313;48.722;9.362;2022-10-16T11:04:37;30.00;99.90
46590;DHT22;32313;48.722;9.362;2022-10-16T11:09:53;29.80;99.90
46590;DHT22;32313;48.722;9.362;2022-10-16T11:12:27;30.00;99.90
46590;DHT22;32313;48.722;9.362;2022-10-16T11:17:48;29.80;99.90
46590;DHT22;32313;48.722;9.362;2022-10-16T11:20:31;30.20;99.90
46590;DHT22;32313;48.722;9.362;2022-10-16T11:23:16;30.30;99.90
46590;DHT22;32313;48.722;9.362;2022-10-16T11:25:43;30.60;97.80
46590;DHT22;32313;48.722;9.362;2022-10-16T11:28:40;30.70;99.20
46590;DHT22;32313;48.722;9.362;2022-10-16T11:31:17;30.50;98.20
46590;DHT22;32313;48.722;9.362;2022-10-16T11:33:57;29.90;97.10
46590;DHT22;32313;48.722;9.362;2022-10-16T11:36:33;30.10;95.70
46590;DHT22;32313;48.722;9.362;2022-10-16T11:41:59;30.30;93.70
46590;DHT22;32313;48.722;9.362;2022-10-16T11:47:31;29.10;95.20
46590;DHT22;32313;48.722;9.362;2022-10-16T11:50:22;29.20;93.50
46590;DHT22;32313;48.722;9.362;2022-10-16T11:53:03;29.10;93.30
46590;DHT22;32313;48.722;9.362;2022-10-16T11:55:35;28.90;92.70
46590;DHT22;32313;48.722;9.362;2022-10-16T12:06:49;29.90;91.90
46590;DHT22;32313;48.722;9.362;2022-10-16T12:09:25;30.70;92.00
46590;DHT22;32313;48.722;9.362;2022-10-16T12:11:51;31.40;91.10
46590;DHT22;32313;48.722;9.362;2022-10-16T12:17:20;30.80;90.10
46590;DHT22;32313;48.722;9.362;2022-10-16T12:22:48;30.50;85.90
46590;DHT22;32313;48.722;9.362;2022-10-16T12:25:28;30.30;88.00
46590;DHT22;32313;48.722;9.362;2022-10-16T12:30:31;30.30;88.30
46590;DHT22;32313;48.722;9.362;2022-10-16T12:35:31;30.70;86.60
46590;DHT22;32313;48.722;9.362;2022-10-16T12:38:21;30.80;83.40
46590;DHT22;32313;48.722;9.362;2022-10-16T12:41:08;30.50;84.20
46590;DHT22;32313;48.722;9.362;2022-10-16T12:43:46;30.50;83.50
46590;DHT22;32313;48.722;9.362;2022-10-16T12:48:39;30.50;83.00
46590;DHT22;32313;48.722;9.362;2022-10-16T12:54:11;30.40;82.20
46590;DHT22;32313;48.722;9.362;2022-10-16T13:16:22;26.00;92.10
46590;DHT22;32313;48.722;9.362;2022-10-16T13:26:57;27.90;89.10
46590;DHT22;32313;48.722;9.362;2022-10-16T13:29:30;28.10;88.50
46590;DHT22;32313;48.722;9.362;2022-10-16T13:31:58;28.30;90.30
46590;DHT22;32313;48.722;9.362;2022-10-16T13:34:25;28.70;88.90
46590;DHT22;32313;48.722;9.362;2022-10-16T13:36:52;28.80;86.80
46590;DHT22;32313;48.722;9.362;2022-10-16T13:39:26;28.70;86.50
46590;DHT22;32313;48.722;9.362;2022-10-16T13:42:22;28.90;86.60
46590;DHT22;32313;48.722;9.362;2022-10-16T13:44:50;29.00;82.20
46590;DHT22;32313;48.722;9.362;2022-10-16T13:47:19;28.60;87.10
46590;DHT22;32313;48.722;9.362;2022-10-16T13:49:46;28.40;89.00
46590;DHT22;32313;48.722;9.362;2022-10-16T13:52:21;28.20;87.50
46590;DHT22;32313;48.722;9.362;2022-10-16T13:54:47;27.80;87.40
46590;DHT22;32313;48.722;9.362;2022-10-16T13:57:16;27.60;88.40
46590;DHT22;32313;48.722;9.362;2022-10-16T13:59:42;27.20;87.80
46590;DHT22;32313;48.722;9.362;2022-10-16T14:02:22;26.70;90.00
46590;DHT22;32313;48.722;9.362;2022-10-16T14:04:50;26.50;90.80
46590;DHT22;32313;48.722;9.362;2022-10-16T14:07:27;26.50;90.30
46590;DHT22;32313;48.722;9.362;2022-10-16T14:09:54;26.40;90.70
46590;DHT22;32313;48.722;9.362;2022-10-16T14:12:22;26.30;91.40
46590;DHT22;32313;48.722;9.362;2022-10-16T14:14:53;26.00;92.30
46590;DHT22;32313;48.722;9.362;2022-10-16T14:17:32;25.90;93.70
46590;DHT22;32313;48.722;9.362;2022-10-16T14:20:00;25.60;94.50
46590;DHT22;32313;48.722;9.362;2022-10-16T14:22:32;25.20;95.90
46590;DHT22;32313;48.722;9.362;2022-10-16T14:24:58;24.70;97.00
46590;DHT22;32313;48.722;9.362;2022-10-16T14:27:35;24.50;98.60
46590;DHT22;32313;48.722;9.362;2022-10-16T14:30:21;24.20;99.00
46590;DHT22;32313;48.722;9.362;2022-10-16T14:33:01;24.00;99.20
46590;DHT22;32313;48.722;9.362;2022-10-16T14:35:36;23.90;99.90
46590;DHT22;32313;48.722;9.362;2022-10-16T14:38:04;23.90;99.90
46590;DHT22;32313;48.722;9.362;2022-10-16T14:40:33;23.90;99.90
46590;DHT22;32313;48.722;9.362;2022-10-16T14:43:01;23.90;99.90
46590;DHT22;32313;48.722;9.362;2022-10-16T14:45:32;23.80;99.90
46590;DHT22;32313;48.722;9.362;2022-10-16T14:48:01;23.60;99.90
46590;DHT22;32313;48.722;9.362;2022-10-16T14:50:28;23.40;99.90
46590;DHT22;32313;48.722;9.362;2022-10-16T14:52:54;23.20;99.90
46590;DHT22;32313;48.722;9.362;2022-10-16T14:55:20;23.00;99.90
46590;DHT22;32313;48.722;9.362;2022-10-16T14:57:47;22.80;99.90
46590;DHT22;32313;48.722;9.362;2022-10-16T15:00:22;22.70;99.90
46590;DHT22;32313;48.722;9.362;2022-10-16T15:02:49;22.60;99.90
46590;DHT22;32313;48.722;9.362;2022-10-16T15:05:20;22.60;99.90
46590;DHT22;32313;48.722;9.362;2022-10-16T15:07:47;22.50;99.90
46590;DHT22;32313;48.722;9.362;2022-10-16T15:10:15;22.40;99.90
46590;DHT22;32313;48.722;9.362;2022-10-16T15:12:42;22.30;99.90
46590;DHT22;32313;48.722;9.362;2022-10-16T15:17:39;22.10;99.90
46590;DHT22;32313;48.722;9.362;2022-10-16T15:20:05;21.90;99.90
46590;DHT22;32313;48.722;9.362;2022-10-16T15:22:31;21.80;99.90
46590;DHT22;32313;48.722;9.362;2022-10-16T15:24:57;21.70;99.90
46590;DHT22;32313;48.722;9.362;2022-10-16T15:27:22;21.60;99.90
46590;DHT22;32313;48.722;9.362;2022-10-16T15:29:48;21.40;99.90
46590;DHT22;32313;48.722;9.362;2022-10-16T15:32:13;21.20;99.90
46590;DHT22;32313;48.722;9.362;2022-10-16T15:34:39;21.10;99.90
46590;DHT22;32313;48.722;9.362;2022-10-16T15:37:05;21.00;99.90
46590;DHT22;32313;48.722;9.362;2022-10-16T15:39:30;20.90;99.90
46590;DHT22;32313;48.722;9.362;2022-10-16T15:41:56;20.80;99.90
46590;DHT22;32313;48.722;9.362;2022-10-16T15:44:21;20.70;99.90
46590;DHT22;32313;48.722;9.362;2022-10-16T15:46:48;20.60;99.90
46590;DHT22;32313;48.722;9.362;2022-10-16T15:49:14;20.50;99.90
46590;DHT22;32313;48.722;9.362;2022-10-16T15:51:41;20.30;99.90
46590;DHT22;32313;48.722;9.362;2022-10-16T15:54:07;20.10;99.90
46590;DHT22;32313;48.722;9.362;2022-10-16T15:56:33;20.00;99.90
46590;DHT22;32313;48.722;9.362;2022-10-16T15:59:00;19.80;99.90
46590;DHT22;32313;48.722;9.362;2022-10-16T16:01:26;19.60;99.90
46590;DHT22;32313;48.722;9.362;2022-10-16T16:03:53;19.40;99.90
46590;DHT22;32313;48.722;9.362;2022-10-16T16:06:19;19.20;99.90
46590;DHT22;32313;48.722;9.362;2022-10-16T16:08:45;19.00;99.90
46590;DHT22;32313;48.722;9.362;2022-10-16T16:11:13;18.80;99.90
46590;DHT22;32313;48.722;9.362;2022-10-16T16:13:39;18.70;99.90
46590;DHT22;32313;48.722;9.362;2022-10-16T16:16:07;18.60;99.90
46590;DHT22;32313;48.722;9.362;2022-10-16T16:18:33;18.40;99.90
46590;DHT22;32313;48.722;9.362;2022-10-16T16:20:59;18.20;99.90
46590;DHT22;32313;48.722;9.362;2022-10-16T16:23:24;18.10;99.90
46590;DHT22;32313;48.722;9.362;2022-10-16T16:26:12;17.90;99.90
46590;DHT22;32313;48.722;9.362;2022-10-16T16:28:40;17.80;99.90
46590;DHT22;32313;48.722;9.362;2022-10-16T16:31:06;17.70;99.90
46590;DHT22;32313;48.722;9.362;2022-10-16T16:33:32;17.50;99.90
46590;DHT22;32313;48.722;9.362;2022-10-16T16:35:59;17.40;99.90
46590;DHT22;32313;48.722;9.362;2022-10-16T16:38:25;17.30;99.90
46590;DHT22;32313;48.722;9.362;2022-10-16T16:40:51;17.20;99.90
46590;DHT22;32313;48.722;9.362;2022-10-16T16:43:17;17.10;99.90
46590;DHT22;32313;48.722;9.362;2022-10-16T16:45:43;17.10;99.90
46590;DHT22;32313;48.722;9.362;2022-10-16T16:48:09;17.00;99.90
46590;DHT22;32313;48.722;9.362;2022-10-16T16:50:36;16.90;99.90
46590;DHT22;32313;48.722;9.362;2022-10-16T16:53:01;16.80;99.90
46590;DHT22;32313;48.722;9.362;2022-10-16T16:55:27;16.70;99.90
46590;DHT22;32313;48.722;9.362;2022-10-16T16:57:53;16.60;99.90
46590;DHT22;32313;48.722;9.362;2022-10-16T17:00:18;16.50;99.90
46590;DHT22;32313;48.722;9.362;2022-10-16T17:02:48;16.50;99.90
46590;DHT22;32313;48.722;9.362;2022-10-16T17:05:14;16.50;99.90
46590;DHT22;32313;48.722;9.362;2022-10-16T17:07:40;16.40;99.90
46590;DHT22;32313;48.722;9.362;2022-10-16T17:10:06;16.40;99.90
46590;DHT22;32313;48.722;9.362;2022-10-16T17:12:32;16.40;99.90
46590;DHT22;32313;48.722;9.362;2022-10-16T17:14:58;16.40;99.90
46590;DHT22;32313;48.722;9.362;2022-10-16T17:17:24;16.30;99.90
46590;DHT22;32313;48.722;9.362;2022-10-16T17:19:50;16.30;99.90
46590;DHT22;32313;48.722;9.362;2022-10-16T17:22:17;16.30;99.90
46590;DHT22;32313;48.722;9.362;2022-10-16T17:24:43;16.20;99.90
46590;DHT22;32313;48.722;9.362;2022-10-16T17:27:09;16.10;99.90
46590;DHT22;32313;48.722;9.362;2022-10-16T17:29:36;16.10;99.90
46590;DHT22;32313;48.722;9.362;2022-10-16T17:32:02;16.00;99.90
46590;DHT22;32313;48.722;9.362;2022-10-16T17:34:28;16.00;99.90
46590;DHT22;32313;48.722;9.362;2022-10-16T17:36:54;15.90;99.90
46590;DHT22;32313;48.722;9.362;2022-10-16T17:39:20;15.90;99.90